Sunday, July 22, 2018, 12:52 AM EDT
Back to Local

KIZG, Fryeburg Eastern Slopes Rgnl

Location: Fryeburg, ME, United States Lat: 43.983
Local Time: 12:52 AM EDT ( 4:52 GMT) Lon: -70.95
Time Zone: US/Eastern Elev: 452 ft

Show me the last for .
Show Decoded

2018-07-21 23:54 METAR KIZG 220354Z AUTO 00000KT 10SM CLR 12/12 A3017 RMK AO2 SLP216 T01170117 $
                 =
2018-07-21 22:54 METAR KIZG 220254Z AUTO 00000KT 10SM CLR 13/13 A3018 RMK AO2 SLP220 T01280128
                 50007 $ =
2018-07-21 21:54 METAR KIZG 220154Z AUTO 27003KT 10SM CLR 14/13 A3018 RMK AO2 SLP220 T01390133 $
                 =
2018-07-21 20:54 METAR KIZG 220054Z AUTO 00000KT 10SM CLR 19/13 A3018 RMK AO2 SLP218 T01890133 $
                 =
2018-07-21 19:54 METAR KIZG 212354Z AUTO 14005KT 10SM CLR 22/14 A3016 RMK AO2 SLP213 T02170139
                 10283 20217 53008 $ =
2018-07-21 18:54 METAR KIZG 212254Z AUTO 12009KT 10SM CLR 24/14 A3014 RMK AO2 SLP206 T02440139 $
                 =
2018-07-21 17:54 METAR KIZG 212154Z AUTO 12007KT 10SM CLR 26/13 A3013 RMK AO2 SLP202 T02560133 $
                 =
2018-07-21 16:54 METAR KIZG 212054Z AUTO 14009KT 10SM CLR 26/14 A3014 RMK AO2 SLP205 T02610139
                 55006 $ =
2018-07-21 15:54 METAR KIZG 211954Z AUTO 11007KT 10SM CLR 27/13 A3013 RMK AO2 SLP203 T02720128 $
                 =
2018-07-21 14:54 METAR KIZG 211854Z AUTO 11009KT 10SM CLR 27/13 A3014 RMK AO2 SLP206 T02720128 $
                 =
2018-07-21 13:54 METAR KIZG 211754Z AUTO 11010KT 10SM CLR 27/14 A3016 RMK AO2 SLP211 T02720139
                 10278 20139 58010 $ =
2018-07-21 12:54 METAR KIZG 211654Z AUTO 12008G15KT 080V150 10SM CLR 26/14 A3017 RMK AO2 SLP216
                 T02610139 $ =
2018-07-21 11:54 METAR KIZG 211554Z AUTO 00000KT 10SM CLR 25/14 A3018 RMK AO2 SLP218 T02500144 $
                 =
2018-07-21 10:54 METAR KIZG 211454Z AUTO VRB03KT 10SM CLR 24/14 A3019 RMK AO2 SLP220 T02440144
                 58006 $ =
2018-07-21 09:54 METAR KIZG 211354Z AUTO VRB03KT 10SM CLR 21/16 A3019 RMK AO2 SLP224 T02110161 $
                 =
2018-07-21 08:54 METAR KIZG 211254Z AUTO 00000KT 10SM CLR 18/14 A3020 RMK AO2 SLP226 T01830144 $
                 =
2018-07-21 08:29 METAR KIZG 211229Z AUTO 00000KT 10SM SCT002 16/15 A3020 RMK AO2 T01560150 $ =
2018-07-21 08:08 METAR KIZG 211208Z AUTO 00000KT 3SM BR OVC002 14/14 A3020 RMK AO2 T01440144 $ =
2018-07-21 08:05 METAR KIZG 211205Z AUTO 00000KT 1SM BR VV002 14/14 A3020 RMK AO2 T01440144 $ =
2018-07-21 07:54 METAR KIZG 211154Z AUTO 00000KT 1/4SM FG VV002 14/14 A3020 RMK AO2 SLP227
                 T01390139 10139 20089 50007 $ =
2018-07-21 06:54 METAR KIZG 211054Z AUTO 00000KT M1/4SM FG VV001 12/12 A3020 RMK AO2 SLP228
                 T01220122 $ =
2018-07-21 05:54 METAR KIZG 210954Z AUTO 00000KT 1/4SM FG VV002 11/11 A3019 RMK AO2 SLP225
                 T01110111 $ =
2018-07-21 05:27 METAR KIZG 210927Z AUTO 00000KT 1/4SM FG VV002 10/10 A3019 RMK AO2 T01000100 =
2018-07-21 05:17 METAR KIZG 210917Z AUTO 00000KT 3/4SM BR VV002 09/09 A3019 RMK AO2 T00940094 =
2018-07-21 05:14 METAR KIZG 210914Z AUTO 00000KT 1 1/2SM BR OVC002 09/09 A3019 RMK AO2 VIS 3/4V5
                 T00940094 =
2018-07-21 05:08 METAR KIZG 210908Z AUTO 00000KT 4SM BR OVC002 09/09 A3018 RMK AO2 T00940094 =
2018-07-21 05:01 METAR KIZG 210901Z AUTO 00000KT 2 1/2SM BR BKN002 09/09 A3018 RMK AO2 T00940094
                 =
2018-07-21 04:59 METAR KIZG 210859Z AUTO 00000KT 1SM BR BKN002 09/09 A3018 RMK AO2 T00940094 =
2018-07-21 04:54 METAR KIZG 210854Z AUTO 00000KT 1/4SM FG VV002 09/09 A3018 RMK AO2 SLP220
                 T00940094 51001 =
2018-07-21 04:50 METAR KIZG 210850Z AUTO 00000KT 1/4SM FG VV002 09/09 A3018 RMK AO2 =
2018-07-21 04:43 METAR KIZG 210843Z AUTO 00000KT 1/2SM FG VV003 09/09 A3018 RMK AO2 T00890089 =
2018-07-21 04:34 METAR KIZG 210834Z AUTO 00000KT 1/4SM FG VV003 09/09 A3018 RMK AO2 T00940094 =
2018-07-21 04:15 METAR KIZG 210815Z AUTO 00000KT 1/2SM FG VV003 09/09 A3019 RMK AO2 T00890089 $ =
2018-07-21 04:02 METAR KIZG 210802Z AUTO 00000KT 1/4SM FG VV002 09/09 A3018 RMK AO2 T00940094 $ =
2018-07-21 03:54 METAR KIZG 210754Z AUTO 00000KT 3/4SM BR CLR 10/10 A3019 RMK AO2 SLP221
                 T01000100 $ =
2018-07-21 03:01 METAR KIZG 210701Z AUTO 00000KT 8SM FEW002 11/11 A3018 RMK AO2 T01060106 =
2018-07-21 02:54 METAR KIZG 210654Z AUTO 00000KT 1 3/4SM BR FEW002 11/11 A3018 RMK AO2 VIS 1/4V5
                 SLP218 T01060106 =
2018-07-21 02:52 METAR KIZG 210652Z AUTO 00000KT 3/4SM BR VV002 11/11 A3018 RMK AO2 VIS 1/4V5 =
2018-07-21 02:45 METAR KIZG 210645Z AUTO 00000KT 1SM BR VV002 11/11 A3018 RMK AO2 T01060106 =
2018-07-21 02:36 METAR KIZG 210636Z AUTO 00000KT 1 3/4SM BR CLR 11/11 A3018 RMK AO2 T01060106 =
2018-07-21 02:31 METAR KIZG 210631Z AUTO 00000KT 4SM BR CLR 11/11 A3018 RMK AO2 T01110111 =
2018-07-21 02:21 METAR KIZG 210621Z AUTO 00000KT 1 3/4SM BR CLR 11/11 A3018 RMK AO2 T01110111 =
2018-07-21 01:54 METAR KIZG 210554Z AUTO 00000KT 5SM BR CLR 11/11 A3018 RMK AO2 SLP219 T01110111
                 10233 20111 56004 =
2018-07-21 00:54 METAR KIZG 210454Z AUTO 00000KT 10SM CLR 12/12 A3018 RMK AO2 SLP219 T01220122
                 403110089 =

Support USWX by starting your Amazon purchase here.